createdAt,value
2018-08-28T00:00:08.323Z,70.23
2018-08-28T00:00:34.435Z,70.14
2018-08-28T00:01:00.546Z,70.14
2018-08-28T00:01:26.678Z,70.14
2018-08-28T00:01:52.785Z,69.85
2018-08-28T00:02:18.894Z,70.07
2018-08-28T00:02:45.004Z,70.23
2018-08-28T00:03:11.113Z,70.04
2018-08-28T00:03:37.241Z,70.23
2018-08-28T00:04:03.389Z,70.23
2018-08-28T00:04:29.497Z,69.95
2018-08-28T00:04:55.606Z,70.33
2018-08-28T00:05:21.714Z,70.04
2018-08-28T00:05:47.824Z,69.75
2018-08-28T00:06:13.933Z,70.14
2018-08-28T00:06:40.041Z,70.04
2018-08-28T00:07:06.168Z,69.85
2018-08-28T00:07:32.276Z,69.98
2018-08-28T00:07:58.438Z,70.14
2018-08-28T00:08:24.550Z,70.14
2018-08-28T00:08:50.657Z,70.23
2018-08-28T00:09:16.785Z,70.14
2018-08-28T00:09:42.919Z,69.95
2018-08-28T00:10:09.049Z,69.75
2018-08-28T00:10:35.191Z,70.14
2018-08-28T00:11:01.323Z,70.14
2018-08-28T00:11:27.431Z,70.33
2018-08-28T00:11:53.540Z,70.9
2018-08-28T00:12:19.652Z,70.9
2018-08-28T00:12:45.761Z,70.23
2018-08-28T00:13:11.875Z,70.72
2018-08-28T00:13:38.023Z,71
2018-08-28T00:14:04.146Z,71
2018-08-28T00:14:30.256Z,70.9
2018-08-28T00:14:56.366Z,70.81
2018-08-28T00:15:22.476Z,70.9
2018-08-28T00:15:48.584Z,70.81
2018-08-28T00:16:14.694Z,70.52
2018-08-28T00:16:40.804Z,70.62
2018-08-28T00:17:06.962Z,70.52
2018-08-28T00:17:33.072Z,70.9
2018-08-28T00:17:59.181Z,70.9
2018-08-28T00:18:25.292Z,70.81
2018-08-28T00:18:51.421Z,70.72
2018-08-28T00:19:17.530Z,70.9
2018-08-28T00:19:43.639Z,70.72
2018-08-28T00:20:09.750Z,70.62
2018-08-28T00:20:35.860Z,70.62
2018-08-28T00:21:01.968Z,70.72
2018-08-28T00:21:28.077Z,71.1
2018-08-28T00:21:54.207Z,70.9
2018-08-28T00:22:20.318Z,71.1
2018-08-28T00:22:46.433Z,71
2018-08-28T00:23:12.557Z,70.9
2018-08-28T00:23:38.668Z,70.9
2018-08-28T00:24:04.776Z,70.9
2018-08-28T00:24:30.883Z,70.9
2018-08-28T00:24:56.998Z,70.9
2018-08-28T00:25:23.103Z,71.29
2018-08-28T00:25:49.215Z,71.48
2018-08-28T00:26:15.323Z,71.48
2018-08-28T00:26:41.450Z,71.67
2018-08-28T00:27:07.558Z,71.39
2018-08-28T00:27:33.684Z,71.29
2018-08-28T00:27:59.793Z,71.39
2018-08-28T00:28:25.902Z,71.87
2018-08-28T00:28:52.013Z,71.58
2018-08-28T00:29:18.118Z,71.58
2018-08-28T00:29:44.245Z,71.48
2018-08-28T00:30:10.373Z,71.67
2018-08-28T00:30:36.500Z,71.77
2018-08-28T00:31:02.626Z,71.39
2018-08-28T00:31:28.753Z,71.48
2018-08-28T00:31:54.860Z,71.48
2018-08-28T00:32:20.969Z,71.48
2018-08-28T00:32:47.078Z,71.39
2018-08-28T00:33:13.190Z,71.58
2018-08-28T00:33:39.299Z,71.48
2018-08-28T00:34:05.412Z,71.19
2018-08-28T00:34:31.537Z,71.77
2018-08-28T00:34:57.648Z,71.48
2018-08-28T00:35:23.756Z,71.67
2018-08-28T00:35:49.866Z,71.39
2018-08-28T00:36:15.979Z,71.48
2018-08-28T00:36:42.087Z,71.39
2018-08-28T00:37:08.196Z,71.77
2018-08-28T00:37:34.306Z,71.87
2018-08-28T00:38:00.432Z,71.67
2018-08-28T00:38:26.558Z,71.48
2018-08-28T00:38:52.666Z,71.39
2018-08-28T00:39:18.776Z,71.58
2018-08-28T00:39:44.885Z,71.58
2018-08-28T00:40:10.994Z,71.58
2018-08-28T00:40:37.100Z,71.39
2018-08-28T00:41:03.234Z,71.19
2018-08-28T00:41:29.339Z,71.87
2018-08-28T00:41:55.450Z,71.87
2018-08-28T00:42:21.560Z,71.58
2018-08-28T00:42:47.669Z,71.77
2018-08-28T00:43:13.795Z,71.39
2018-08-28T00:43:39.902Z,71.58
2018-08-28T00:44:06.014Z,71.58
2018-08-28T00:44:32.159Z,71.77
2018-08-28T00:44:58.269Z,71.19
2018-08-28T00:45:24.382Z,71.67
2018-08-28T00:45:50.511Z,71.39
2018-08-28T00:46:16.618Z,71.96
2018-08-28T00:46:42.725Z,71.39
2018-08-28T00:47:08.851Z,71.19
2018-08-28T00:47:34.976Z,71.39
2018-08-28T00:48:01.087Z,71.39
2018-08-28T00:48:27.197Z,71.48
2018-08-28T00:48:53.303Z,71.77
2018-08-28T00:49:19.414Z,71.77
2018-08-28T00:49:45.542Z,71.77
2018-08-28T00:50:11.655Z,71.58
2018-08-28T00:50:37.761Z,72.06
2018-08-28T00:51:03.870Z,71.77
2018-08-28T00:51:29.997Z,71.96
2018-08-28T00:51:56.106Z,71.87
2018-08-28T00:52:22.239Z,71.96
2018-08-28T00:52:48.342Z,71.96
2018-08-28T00:53:14.451Z,72.06
2018-08-28T00:53:40.581Z,71.96
2018-08-28T00:54:06.691Z,71.96
2018-08-28T00:54:32.801Z,71.77
2018-08-28T00:54:58.928Z,71.58
2018-08-28T00:55:25.037Z,71.39
2018-08-28T00:55:51.147Z,71.39
2018-08-28T00:56:17.257Z,71.48
2018-08-28T00:56:43.367Z,71.48
2018-08-28T00:57:09.476Z,71.19
2018-08-28T00:57:35.589Z,71.77
2018-08-28T00:58:01.699Z,71.48
2018-08-28T00:58:27.809Z,71.96
2018-08-28T00:58:53.916Z,71.71
2018-08-28T00:59:20.027Z,71.77
2018-08-28T00:59:46.135Z,71.48
2018-08-28T01:00:12.263Z,71.39
2018-08-28T01:00:38.391Z,71.77
2018-08-28T01:01:04.505Z,71.96
2018-08-28T01:01:30.629Z,71.58
2018-08-28T01:01:56.754Z,72.06
2018-08-28T01:02:22.865Z,72.16
2018-08-28T01:02:48.978Z,72.06
2018-08-28T01:03:15.123Z,71.87
2018-08-28T01:03:41.230Z,71.96
2018-08-28T01:04:07.339Z,71.87
2018-08-28T01:04:33.450Z,71.39
2018-08-28T01:04:59.558Z,71.58
2018-08-28T01:05:25.662Z,71.58
2018-08-28T01:05:51.773Z,71.58
2018-08-28T01:06:17.905Z,71.67
2018-08-28T01:06:44.026Z,71.87
2018-08-28T01:07:10.134Z,71.96
2018-08-28T01:07:36.245Z,71.96
2018-08-28T01:08:02.368Z,72.06
2018-08-28T01:08:28.477Z,71.48
2018-08-28T01:08:54.588Z,72.06
2018-08-28T01:09:20.732Z,72.06
2018-08-28T01:09:46.841Z,72.25
2018-08-28T01:10:12.948Z,72.16
2018-08-28T01:10:39.058Z,72.06
2018-08-28T01:11:05.185Z,72.25
2018-08-28T01:11:31.293Z,71.29
2018-08-28T01:11:57.405Z,72.25
2018-08-28T01:12:23.533Z,71.48
2018-08-28T01:12:49.643Z,72.16
2018-08-28T01:13:15.752Z,72.25
2018-08-28T01:13:41.861Z,72.06
2018-08-28T01:14:07.972Z,71.77
2018-08-28T01:14:34.163Z,71.77
2018-08-28T01:15:00.212Z,72.16
2018-08-28T01:15:26.325Z,71.29
2018-08-28T01:15:52.448Z,72.06
2018-08-28T01:16:18.556Z,72.06
2018-08-28T01:16:44.664Z,71.96
2018-08-28T01:17:10.773Z,71.77
2018-08-28T01:17:36.883Z,71.77
2018-08-28T01:18:02.995Z,72.25
2018-08-28T01:18:29.104Z,71.77
2018-08-28T01:18:55.214Z,72.16
2018-08-28T01:19:21.323Z,72.34
2018-08-28T01:19:47.433Z,71.48
2018-08-28T01:20:13.561Z,71.77
2018-08-28T01:20:39.688Z,72.06
2018-08-28T01:21:05.799Z,72.16
2018-08-28T01:21:31.907Z,71.96
2018-08-28T01:21:58.036Z,72.16
2018-08-28T01:22:24.162Z,71.48
2018-08-28T01:22:50.268Z,72.06
2018-08-28T01:23:16.377Z,72.06
2018-08-28T01:23:42.506Z,72.25
2018-08-28T01:24:08.616Z,71.67
2018-08-28T01:24:34.724Z,72.16
2018-08-28T01:25:00.867Z,71.58
2018-08-28T01:25:26.997Z,72.06
2018-08-28T01:25:53.121Z,72.29
2018-08-28T01:26:19.230Z,71.96
2018-08-28T01:26:45.357Z,71.67
2018-08-28T01:27:11.465Z,71.87
2018-08-28T01:27:37.595Z,71.87
2018-08-28T01:28:03.701Z,71.67
2018-08-28T01:28:29.816Z,72
2018-08-28T01:28:55.943Z,71.87
2018-08-28T01:29:22.054Z,71.67
2018-08-28T01:29:48.164Z,71.81
2018-08-28T01:30:14.274Z,72.09
2018-08-28T01:30:40.402Z,72.06
2018-08-28T01:31:06.511Z,71.96
2018-08-28T01:31:32.619Z,72.16
2018-08-28T01:31:58.746Z,71.87
2018-08-28T01:32:24.858Z,72.06
2018-08-28T01:32:50.982Z,71.96
2018-08-28T01:33:17.091Z,72.16
2018-08-28T01:33:43.201Z,72.25
2018-08-28T01:34:09.311Z,71.67
2018-08-28T01:34:35.418Z,72.16
2018-08-28T01:35:01.546Z,72.06
2018-08-28T01:35:27.675Z,71.87
2018-08-28T01:35:53.805Z,71.87
2018-08-28T01:36:19.914Z,71.96
2018-08-28T01:36:46.042Z,71.67
2018-08-28T01:37:12.211Z,71.71
2018-08-28T01:37:38.272Z,71.87
2018-08-28T01:38:04.382Z,71.96
2018-08-28T01:38:30.490Z,71.67
2018-08-28T01:38:56.600Z,71.87
2018-08-28T01:39:22.709Z,71.96
2018-08-28T01:39:48.818Z,72.09
2018-08-28T01:40:14.931Z,72.16
2018-08-28T01:40:41.038Z,71.77
2018-08-28T01:41:07.147Z,71.67
2018-08-28T01:41:33.256Z,71.91
2018-08-28T01:41:59.366Z,72.06
2018-08-28T01:42:25.478Z,72.16
2018-08-28T01:42:51.585Z,72.25
2018-08-28T01:43:17.712Z,71.96
2018-08-28T01:43:43.821Z,71.87
2018-08-28T01:44:09.931Z,71.96
2018-08-28T01:44:36.043Z,71.67
2018-08-28T01:45:02.153Z,71.77
2018-08-28T01:45:28.264Z,71.77
2018-08-28T01:45:54.373Z,71.96
2018-08-28T01:46:20.482Z,71.58
2018-08-28T01:46:46.589Z,71.67
2018-08-28T01:47:12.712Z,71.96
2018-08-28T01:47:38.811Z,72.16
2018-08-28T01:48:04.913Z,72.64
2018-08-28T01:48:31.031Z,72.44
2018-08-28T01:48:57.131Z,72.06
2018-08-28T01:49:23.233Z,72.16
2018-08-28T01:49:49.334Z,72.06
2018-08-28T01:50:15.440Z,72.16
2018-08-28T01:50:41.552Z,72.34
2018-08-28T01:51:07.671Z,72.34
2018-08-28T01:51:33.772Z,71.77
2018-08-28T01:51:59.878Z,72.54
2018-08-28T01:52:25.992Z,72.64
2018-08-28T01:52:52.093Z,72.73
2018-08-28T01:53:18.194Z,71.58
2018-08-28T01:53:44.312Z,71.77
2018-08-28T01:54:10.412Z,71.96
2018-08-28T01:54:36.514Z,71.96
2018-08-28T01:55:02.616Z,72.34
2018-08-28T01:55:28.716Z,72.16
2018-08-28T01:55:54.818Z,71.96
2018-08-28T01:56:20.934Z,71.67
2018-08-28T01:56:47.035Z,71.96
2018-08-28T01:57:13.136Z,72.06
2018-08-28T01:57:39.236Z,72.06
2018-08-28T01:58:05.338Z,71.96
2018-08-28T01:58:31.454Z,72.54
2018-08-28T01:58:57.567Z,72.64
2018-08-28T01:59:23.656Z,72.19
2018-08-28T01:59:49.757Z,72.34
2018-08-28T02:00:15.873Z,72.25
2018-08-28T02:00:41.975Z,72.64
2018-08-28T02:01:08.074Z,72.16
2018-08-28T02:01:34.176Z,72.06
2018-08-28T02:02:00.277Z,72.44
2018-08-28T02:02:26.376Z,72.54
2018-08-28T02:02:52.479Z,72.16
2018-08-28T02:03:18.594Z,71.96
2018-08-28T02:03:44.695Z,71.77
2018-08-28T02:04:10.797Z,72.64
2018-08-28T02:04:36.918Z,71.77
2018-08-28T02:05:03.033Z,72.44
2018-08-28T02:05:29.134Z,72.54
2018-08-28T02:05:55.253Z,72.44
2018-08-28T02:06:21.359Z,72.44
2018-08-28T02:06:47.489Z,72.73
2018-08-28T02:07:13.591Z,72.54
2018-08-28T02:07:39.693Z,72.54
2018-08-28T02:08:05.825Z,72.16
2018-08-28T02:08:31.928Z,72.25
2018-08-28T02:08:58.044Z,72.83
2018-08-28T02:09:24.147Z,72.16
2018-08-28T02:09:50.248Z,71.77
2018-08-28T02:10:16.365Z,72.64
2018-08-28T02:10:42.466Z,72.16
2018-08-28T02:11:08.567Z,72.54
2018-08-28T02:11:34.717Z,72.34
2018-08-28T02:12:00.818Z,72.54
2018-08-28T02:12:26.938Z,72.54
2018-08-28T02:12:53.040Z,72.44
2018-08-28T02:13:19.157Z,72.25
2018-08-28T02:13:45.260Z,72.25
2018-08-28T02:14:11.357Z,72.54
2018-08-28T02:14:37.476Z,72.06
2018-08-28T02:15:03.592Z,72.92
2018-08-28T02:15:29.692Z,72.44
2018-08-28T02:15:55.792Z,72.64
2018-08-28T02:16:21.894Z,72.25
2018-08-28T02:16:47.993Z,72.54
2018-08-28T02:17:14.096Z,72.34
2018-08-28T02:17:40.212Z,72.92
2018-08-28T02:18:06.316Z,73.02
2018-08-28T02:18:32.416Z,72.67
2018-08-28T02:18:58.518Z,72.25
2018-08-28T02:19:24.624Z,72.44
2018-08-28T02:19:50.722Z,72.64
2018-08-28T02:20:16.841Z,72.44
2018-08-28T02:20:42.942Z,72.44
2018-08-28T02:21:09.060Z,72.34
2018-08-28T02:21:35.161Z,73.11
2018-08-28T02:22:01.297Z,72.54
2018-08-28T02:22:27.398Z,72.92
2018-08-28T02:22:53.499Z,73.11
2018-08-28T02:23:19.615Z,73.11
2018-08-28T02:23:45.720Z,72.83
2018-08-28T02:24:11.823Z,73.11
2018-08-28T02:24:37.922Z,72.73
2018-08-28T02:25:04.026Z,72.44
2018-08-28T02:25:30.144Z,72.25
2018-08-28T02:25:56.243Z,72.44
2018-08-28T02:26:22.344Z,72.25
2018-08-28T02:26:48.462Z,72.92
2018-08-28T02:27:14.580Z,72.06
2018-08-28T02:27:40.685Z,72.16
2018-08-28T02:28:06.798Z,73.21
2018-08-28T02:28:32.918Z,72.92
2018-08-28T02:28:59.020Z,72.92
2018-08-28T02:29:25.120Z,72.83
2018-08-28T02:29:51.220Z,72.92
2018-08-28T02:30:17.340Z,72.83
2018-08-28T02:30:43.471Z,73.02
2018-08-28T02:31:09.589Z,72.73
2018-08-28T02:31:35.719Z,72.83
2018-08-28T02:32:01.849Z,73.11
2018-08-28T02:32:27.973Z,72.92
2018-08-28T02:32:54.091Z,72.73
2018-08-28T02:33:20.239Z,72.64
2018-08-28T02:33:46.459Z,72.73
2018-08-28T02:34:12.487Z,72.73
2018-08-28T02:34:38.626Z,72.73
2018-08-28T02:35:04.756Z,72.44
2018-08-28T02:35:30.932Z,73.02
2018-08-28T02:35:57.092Z,72.67
2018-08-28T02:36:23.226Z,72.83
2018-08-28T02:36:49.384Z,72.86
2018-08-28T02:37:15.565Z,73.02
2018-08-28T02:37:41.697Z,72.86
2018-08-28T02:38:07.858Z,72.16
2018-08-28T02:38:33.996Z,72.54
2018-08-28T02:39:00.153Z,72.16
2018-08-28T02:39:26.290Z,72.83
2018-08-28T02:39:52.446Z,72.77
2018-08-28T02:40:18.582Z,72.73
2018-08-28T02:40:44.734Z,72.83
2018-08-28T02:41:10.889Z,72.64
2018-08-28T02:41:37.039Z,73.02
2018-08-28T02:42:03.182Z,72.92
2018-08-28T02:42:29.320Z,72.64
2018-08-28T02:42:55.478Z,72.92
2018-08-28T02:43:21.639Z,72.83
2018-08-28T02:43:47.787Z,73.02
2018-08-28T02:44:13.942Z,73.5
2018-08-28T02:44:40.099Z,73.5
2018-08-28T02:45:06.296Z,73.69
2018-08-28T02:45:32.450Z,73.69
2018-08-28T02:45:58.592Z,73.02
2018-08-28T02:46:24.727Z,73.02
2018-08-28T02:46:50.881Z,73.02
2018-08-28T02:47:17.036Z,72.54
2018-08-28T02:47:43.188Z,72.92
2018-08-28T02:48:09.319Z,72.54
2018-08-28T02:48:35.485Z,72.64
2018-08-28T02:49:01.647Z,73.02
2018-08-28T02:49:27.799Z,72.92
2018-08-28T02:49:53.981Z,73.41
2018-08-28T02:50:20.082Z,73.02
2018-08-28T02:50:46.216Z,73.69
2018-08-28T02:51:12.348Z,73.02
2018-08-28T02:51:38.485Z,73.11
2018-08-28T02:52:04.616Z,73.31
2018-08-28T02:52:30.773Z,73.21
2018-08-28T02:52:56.954Z,72.92
2018-08-28T02:53:23.094Z,73.02
2018-08-28T02:53:49.226Z,72.83
2018-08-28T02:54:15.356Z,73.02
2018-08-28T02:54:41.522Z,73.02
2018-08-28T02:55:07.660Z,72.83
2018-08-28T02:55:33.815Z,72.83
2018-08-28T02:56:00.005Z,73.5
2018-08-28T02:56:26.087Z,73.02
2018-08-28T02:56:52.219Z,73.31
2018-08-28T02:57:18.406Z,73.21
2018-08-28T02:57:44.560Z,73.41
2018-08-28T02:58:10.692Z,73.6
2018-08-28T02:58:36.824Z,73.11
2018-08-28T02:59:02.959Z,73.5
2018-08-28T02:59:29.121Z,73.69
2018-08-28T02:59:55.256Z,73.5
2018-08-28T03:00:21.385Z,73.21
2018-08-28T03:00:47.542Z,73.31
2018-08-28T03:01:13.684Z,73.02
2018-08-28T03:01:39.844Z,73.02
2018-08-28T03:02:06.004Z,73.21
2018-08-28T03:02:32.209Z,73.41
2018-08-28T03:02:58.427Z,73.31
2018-08-28T03:03:24.575Z,73.11
2018-08-28T03:03:50.756Z,73.88
2018-08-28T03:04:16.915Z,73.41
2018-08-28T03:04:43.049Z,73.31
2018-08-28T03:05:09.215Z,73.11
2018-08-28T03:05:35.387Z,73.02
2018-08-28T03:06:01.525Z,73.31
2018-08-28T03:06:27.689Z,73.6
2018-08-28T03:06:53.871Z,73.69
2018-08-28T03:07:20.007Z,73.79
2018-08-28T03:07:46.146Z,73.98
2018-08-28T03:08:12.325Z,73.5
2018-08-28T03:08:38.451Z,73.31
2018-08-28T03:09:04.581Z,73.69
2018-08-28T03:09:30.735Z,73.69
2018-08-28T03:09:56.903Z,73.79
2018-08-28T03:10:23.055Z,73.69
2018-08-28T03:10:49.194Z,73.5
2018-08-28T03:11:15.345Z,73.98
2018-08-28T03:11:41.529Z,74.27
2018-08-28T03:12:07.586Z,74.27
2018-08-28T03:12:33.744Z,73.98
2018-08-28T03:12:59.879Z,73.31
2018-08-28T03:13:26.033Z,73.31
2018-08-28T03:13:52.161Z,73.6
2018-08-28T03:14:18.323Z,73.69
2018-08-28T03:14:44.472Z,73.88
2018-08-28T03:15:10.623Z,73.79
2018-08-28T03:15:36.830Z,73.88
2018-08-28T03:16:03.004Z,74.08
2018-08-28T03:16:29.038Z,74.08
2018-08-28T03:16:55.181Z,73.88
2018-08-28T03:17:21.359Z,74.08
2018-08-28T03:17:47.508Z,74.08
2018-08-28T03:18:13.645Z,74.17
2018-08-28T03:18:39.778Z,73.88
2018-08-28T03:19:05.908Z,74.27
2018-08-28T03:19:32.087Z,73.98
2018-08-28T03:19:58.234Z,73.98
2018-08-28T03:20:24.364Z,73.69
2018-08-28T03:20:50.542Z,73.69
2018-08-28T03:21:16.682Z,73.6
2018-08-28T03:21:42.836Z,73.69
2018-08-28T03:22:08.969Z,73.98
2018-08-28T03:22:35.113Z,73.98
2018-08-28T03:23:01.267Z,73.79
2018-08-28T03:23:27.403Z,73.98
2018-08-28T03:23:53.545Z,74.08
2018-08-28T03:24:19.676Z,74.08
2018-08-28T03:24:45.812Z,74.08
2018-08-28T03:25:11.948Z,74.17
2018-08-28T03:25:38.080Z,74.17
2018-08-28T03:26:04.238Z,74.27
2018-08-28T03:26:30.367Z,73.98
2018-08-28T03:26:56.503Z,73.88
2018-08-28T03:27:22.646Z,73.88
2018-08-28T03:27:48.777Z,74.08
2018-08-28T03:28:14.935Z,74.08
2018-08-28T03:28:41.079Z,74.08
2018-08-28T03:29:07.287Z,74.08
2018-08-28T03:29:33.340Z,74.17
2018-08-28T03:29:59.493Z,74.27
2018-08-28T03:30:25.678Z,74.65
2018-08-28T03:30:51.821Z,74.27
2018-08-28T03:31:17.975Z,74.46
2018-08-28T03:31:44.110Z,74.85
2018-08-28T03:32:10.265Z,74.55
2018-08-28T03:32:36.401Z,74.37
2018-08-28T03:33:02.530Z,74.55
2018-08-28T03:33:28.685Z,74.37
2018-08-28T03:33:54.820Z,74.65
2018-08-28T03:34:20.951Z,74.37
2018-08-28T03:34:47.108Z,74.27
2018-08-28T03:35:13.234Z,74.27
2018-08-28T03:35:39.385Z,74.27
2018-08-28T03:36:05.517Z,74.65
2018-08-28T03:36:31.652Z,74.55
2018-08-28T03:36:57.783Z,74.65
2018-08-28T03:37:23.956Z,74.55
2018-08-28T03:37:50.110Z,74.46
2018-08-28T03:38:16.266Z,74.65
2018-08-28T03:38:42.401Z,74.46
2018-08-28T03:39:08.558Z,74.65
2018-08-28T03:39:34.737Z,74.46
2018-08-28T03:40:00.888Z,74.46
2018-08-28T03:40:27.025Z,74.08
2018-08-28T03:40:53.177Z,74.17
2018-08-28T03:41:19.304Z,74.27
2018-08-28T03:41:45.459Z,74.75
2018-08-28T03:42:11.589Z,74.27
2018-08-28T03:42:37.725Z,74.46
2018-08-28T03:43:03.865Z,74.17
2018-08-28T03:43:29.996Z,74.75
2018-08-28T03:43:56.127Z,74.55
2018-08-28T03:44:22.259Z,74.65
2018-08-28T03:44:48.462Z,74.37
2018-08-28T03:45:14.528Z,74.17
2018-08-28T03:45:40.661Z,74.27
2018-08-28T03:46:06.798Z,74.65
2018-08-28T03:46:32.964Z,73.88
2018-08-28T03:46:59.099Z,73.88
2018-08-28T03:47:25.229Z,73.98
2018-08-28T03:47:51.370Z,74.17
2018-08-28T03:48:17.518Z,74.27
2018-08-28T03:48:43.678Z,74.55
2018-08-28T03:49:09.817Z,74.37
2018-08-28T03:49:35.965Z,74.46
2018-08-28T03:50:02.096Z,74.65
2018-08-28T03:50:28.257Z,74.55
2018-08-28T03:50:54.387Z,74.46
2018-08-28T03:51:20.544Z,74.17
2018-08-28T03:51:46.682Z,74.27
2018-08-28T03:52:12.814Z,73.98
2018-08-28T03:52:38.971Z,74.27
2018-08-28T03:53:05.122Z,74.27
2018-08-28T03:53:31.256Z,73.98
2018-08-28T03:53:57.403Z,74.55
2018-08-28T03:54:23.523Z,74.27
2018-08-28T03:54:49.653Z,74.27
2018-08-28T03:55:15.825Z,74.55
2018-08-28T03:55:41.940Z,74.27
2018-08-28T03:56:08.070Z,74.37
2018-08-28T03:56:34.204Z,74.46
2018-08-28T03:57:00.356Z,74.55
2018-08-28T03:57:26.493Z,74.65
2018-08-28T03:57:52.654Z,74.65
2018-08-28T03:58:18.784Z,74.75
2018-08-28T03:58:44.913Z,74.75
2018-08-28T03:59:11.053Z,74.85
2018-08-28T03:59:37.184Z,74.65
2018-08-28T04:00:03.322Z,74.94
2018-08-28T04:00:29.458Z,74.65
2018-08-28T04:00:55.601Z,74.65
2018-08-28T04:01:21.754Z,74.65
2018-08-28T04:01:47.890Z,74.85
2018-08-28T04:02:14.040Z,74.85
2018-08-28T04:02:40.198Z,74.85
2018-08-28T04:03:06.335Z,74.55
2018-08-28T04:03:32.538Z,74.46
2018-08-28T04:03:58.697Z,74.55
2018-08-28T04:04:24.829Z,74.55
2018-08-28T04:04:50.960Z,74.94
2018-08-28T04:05:17.097Z,74.85
2018-08-28T04:05:43.250Z,74.94
2018-08-28T04:06:09.385Z,75.13
2018-08-28T04:06:35.527Z,75.13
2018-08-28T04:07:01.682Z,75.04
2018-08-28T04:07:27.816Z,75.13
2018-08-28T04:07:53.951Z,75.32
2018-08-28T04:08:20.082Z,74.94
2018-08-28T04:08:46.214Z,74.94
2018-08-28T04:09:12.347Z,75.23
2018-08-28T04:09:38.475Z,75.32
2018-08-28T04:10:04.614Z,75.42
2018-08-28T04:10:30.749Z,75.13
2018-08-28T04:10:56.890Z,75.23
2018-08-28T04:11:23.066Z,75.13
2018-08-28T04:11:49.237Z,75.32
2018-08-28T04:12:15.373Z,75.32
2018-08-28T04:12:41.580Z,75.13
2018-08-28T04:13:07.733Z,75.13
2018-08-28T04:13:33.868Z,74.85
2018-08-28T04:13:59.997Z,75.04
2018-08-28T04:14:26.131Z,75.23
2018-08-28T04:14:52.294Z,75.23
2018-08-28T04:15:18.449Z,75.32
2018-08-28T04:15:44.579Z,74.94
2018-08-28T04:16:10.712Z,74.85
2018-08-28T04:16:36.847Z,74.85
2018-08-28T04:17:03.033Z,74.85
2018-08-28T04:17:29.159Z,74.94
2018-08-28T04:17:55.322Z,74.75
2018-08-28T04:18:21.460Z,74.94
2018-08-28T04:18:47.591Z,74.75
2018-08-28T04:19:13.745Z,74.85
2018-08-28T04:19:39.883Z,74.85
2018-08-28T04:20:06.020Z,74.55
2018-08-28T04:20:32.154Z,75.42
2018-08-28T04:20:58.287Z,75.04
2018-08-28T04:21:24.424Z,74.65
2018-08-28T04:21:50.552Z,75.32
2018-08-28T04:22:16.681Z,75.32
2018-08-28T04:22:42.839Z,74.65
2018-08-28T04:23:08.985Z,74.85
2018-08-28T04:23:35.116Z,74.94
2018-08-28T04:24:01.248Z,74.85
2018-08-28T04:24:27.381Z,75.13
2018-08-28T04:24:53.520Z,74.85
2018-08-28T04:25:19.675Z,74.94
2018-08-28T04:25:45.833Z,74.85
2018-08-28T04:26:11.971Z,75.13
2018-08-28T04:26:38.110Z,75.52
2018-08-28T04:27:04.274Z,74.94
2018-08-28T04:27:30.450Z,75.52
2018-08-28T04:27:56.562Z,75.62
2018-08-28T04:28:22.723Z,75.13
2018-08-28T04:28:48.881Z,75.13
2018-08-28T04:29:15.011Z,75.04
2018-08-28T04:29:41.145Z,75.04
2018-08-28T04:30:07.280Z,75.04
2018-08-28T04:30:33.472Z,75.13
2018-08-28T04:30:59.605Z,75.32
2018-08-28T04:31:25.681Z,75.42
2018-08-28T04:31:51.825Z,75.04
2018-08-28T04:32:17.951Z,75.13
2018-08-28T04:32:44.081Z,75.13
2018-08-28T04:33:10.244Z,75.81
2018-08-28T04:33:36.407Z,75.42
2018-08-28T04:34:02.565Z,75.62
2018-08-28T04:34:28.716Z,75.71
2018-08-28T04:34:54.872Z,75.62
2018-08-28T04:35:21.011Z,75.62
2018-08-28T04:35:47.141Z,75.52
2018-08-28T04:36:13.302Z,75.62
2018-08-28T04:36:39.439Z,75.71
2018-08-28T04:37:05.588Z,75.52
2018-08-28T04:37:31.726Z,75.04
2018-08-28T04:37:57.864Z,75.71
2018-08-28T04:38:24.024Z,75.62
2018-08-28T04:38:50.156Z,76.06
2018-08-28T04:39:16.320Z,75.71
2018-08-28T04:39:42.486Z,76.09
2018-08-28T04:40:08.636Z,76.29
2018-08-28T04:40:34.796Z,76.29
2018-08-28T04:41:00.930Z,75.81
2018-08-28T04:41:27.068Z,76.09
2018-08-28T04:41:53.293Z,76.19
2018-08-28T04:42:19.352Z,76
2018-08-28T04:42:45.491Z,75.81
2018-08-28T04:43:11.618Z,75.71
2018-08-28T04:43:37.757Z,76.19
2018-08-28T04:44:03.908Z,76
2018-08-28T04:44:30.039Z,76
2018-08-28T04:44:56.171Z,76.09
2018-08-28T04:45:22.310Z,75.42
2018-08-28T04:45:48.445Z,75.52
2018-08-28T04:46:14.601Z,75.52
2018-08-28T04:46:40.741Z,75.71
2018-08-28T04:47:06.876Z,75.9
2018-08-28T04:47:33.013Z,75.81
2018-08-28T04:47:59.163Z,76.09
2018-08-28T04:48:25.350Z,76.09
2018-08-28T04:48:51.517Z,75.81
2018-08-28T04:49:17.587Z,75.81
2018-08-28T04:49:43.722Z,75.62
2018-08-28T04:50:09.859Z,75.52
2018-08-28T04:50:36.035Z,75.52
2018-08-28T04:51:02.172Z,76.09
2018-08-28T04:51:28.297Z,75.52
2018-08-28T04:51:54.431Z,75.9
2018-08-28T04:52:20.565Z,76.09
2018-08-28T04:52:46.698Z,75.9
2018-08-28T04:53:12.838Z,75.9
2018-08-28T04:53:39.011Z,75.71
2018-08-28T04:54:05.190Z,75.62
2018-08-28T04:54:31.306Z,76.19
2018-08-28T04:54:57.499Z,75.71
2018-08-28T04:55:23.642Z,76.19
2018-08-28T04:55:49.773Z,75.62
2018-08-28T04:56:15.904Z,76.09
2018-08-28T04:56:42.042Z,75.71
2018-08-28T04:57:08.189Z,75.42
2018-08-28T04:57:34.379Z,76.29
2018-08-28T04:58:00.512Z,75.81
2018-08-28T04:58:26.666Z,75.71
2018-08-28T04:58:52.793Z,76
2018-08-28T04:59:18.926Z,76.09
2018-08-28T04:59:45.062Z,75.81
2018-08-28T05:00:11.214Z,76
2018-08-28T05:00:37.441Z,76
2018-08-28T05:01:03.535Z,75.81
2018-08-28T05:01:29.665Z,75.71
2018-08-28T05:01:55.802Z,76.19
2018-08-28T05:02:21.931Z,76
2018-08-28T05:02:48.062Z,76
2018-08-28T05:03:14.193Z,75.81
2018-08-28T05:03:40.350Z,75.9
2018-08-28T05:04:06.488Z,76.06
2018-08-28T05:04:32.624Z,76
2018-08-28T05:04:58.752Z,75.52
2018-08-28T05:05:24.915Z,75.67
2018-08-28T05:05:51.050Z,76.19
2018-08-28T05:06:17.185Z,75.9
2018-08-28T05:06:43.340Z,75.42
2018-08-28T05:07:09.466Z,76
2018-08-28T05:07:35.605Z,76
2018-08-28T05:08:01.760Z,76.09
2018-08-28T05:08:27.896Z,75.71
2018-08-28T05:08:54.028Z,75.52
2018-08-28T05:09:20.184Z,76.19
2018-08-28T05:09:46.334Z,76.29
2018-08-28T05:10:12.475Z,76
2018-08-28T05:10:38.610Z,75.23
2018-08-28T05:11:04.744Z,75.62
2018-08-28T05:11:30.877Z,75.81
2018-08-28T05:11:57.083Z,75.81
2018-08-28T05:12:23.160Z,75.52
2018-08-28T05:12:49.290Z,75.52
2018-08-28T05:13:15.427Z,75.81
2018-08-28T05:13:41.582Z,75.9
2018-08-28T05:14:07.714Z,76.09
2018-08-28T05:14:33.853Z,75.81
2018-08-28T05:14:59.982Z,75.71
2018-08-28T05:15:26.111Z,75.81
2018-08-28T05:15:52.313Z,76.19
2018-08-28T05:16:18.382Z,76
2018-08-28T05:16:44.543Z,76.09
2018-08-28T05:17:10.674Z,75.62
2018-08-28T05:17:36.808Z,75.71
2018-08-28T05:18:02.944Z,76
2018-08-28T05:18:29.078Z,75.62
2018-08-28T05:18:55.234Z,75.9
2018-08-28T05:19:21.484Z,75.52
2018-08-28T05:19:47.549Z,75.52
2018-08-28T05:20:13.679Z,76
2018-08-28T05:20:39.838Z,75.9
2018-08-28T05:21:06.017Z,75.62
2018-08-28T05:21:32.147Z,76.19
2018-08-28T05:21:58.287Z,76.29
2018-08-28T05:22:24.444Z,76.29
2018-08-28T05:22:50.599Z,75.9
2018-08-28T05:23:16.734Z,75.62
2018-08-28T05:23:42.872Z,75.52
2018-08-28T05:24:09.004Z,75.42
2018-08-28T05:24:35.162Z,75.52
2018-08-28T05:25:01.299Z,75.9
2018-08-28T05:25:27.431Z,75.32
2018-08-28T05:25:53.587Z,75.04
2018-08-28T05:26:19.723Z,75.71
2018-08-28T05:26:45.852Z,74.94
2018-08-28T05:27:11.990Z,75.32
2018-08-28T05:27:38.123Z,75.62
2018-08-28T05:28:04.253Z,75.23
2018-08-28T05:28:30.386Z,75.52
2018-08-28T05:28:56.547Z,75.42
2018-08-28T05:29:22.740Z,74.94
2018-08-28T05:29:48.854Z,75.32
2018-08-28T05:30:15.004Z,75.62
2018-08-28T05:30:41.154Z,75.52
2018-08-28T05:31:07.285Z,75.81
2018-08-28T05:31:33.442Z,75.62
2018-08-28T05:31:59.595Z,75.81
2018-08-28T05:32:25.753Z,75.81
2018-08-28T05:32:51.875Z,76.19
2018-08-28T05:33:18.035Z,75.62
2018-08-28T05:33:44.167Z,75.32
2018-08-28T05:34:10.303Z,75.04
2018-08-28T05:34:36.459Z,75.62
2018-08-28T05:35:02.602Z,75.81
2018-08-28T05:35:28.754Z,75.9
2018-08-28T05:35:54.941Z,75.32
2018-08-28T05:36:21.064Z,75.62
2018-08-28T05:36:47.202Z,75.52
2018-08-28T05:37:13.329Z,75.9
2018-08-28T05:37:39.459Z,76.09